createdAt,value
2023-04-10T00:07:43.474Z,85.93
2023-04-10T00:17:55.329Z,86.14
2023-04-10T00:28:03.026Z,86.40
2023-04-10T00:38:10.091Z,86.73
2023-04-10T00:48:17.737Z,86.44
2023-04-10T00:58:26.438Z,86.56
2023-04-10T01:08:31.564Z,86.52
2023-04-10T01:18:45.717Z,86.66
2023-04-10T01:29:00.671Z,86.57
2023-04-10T01:39:09.601Z,86.60
2023-04-10T01:49:17.627Z,86.84
2023-04-10T01:59:25.116Z,86.83
2023-04-10T02:09:29.983Z,87.31
2023-04-10T02:19:39.207Z,87.12
2023-04-10T02:29:46.200Z,87.25
2023-04-10T02:39:54.766Z,87.33
2023-04-10T02:50:01.793Z,87.59
2023-04-10T03:00:11.134Z,87.72
2023-04-10T03:10:16.976Z,87.85
2023-04-10T03:20:23.139Z,88.21
2023-04-10T03:30:30.488Z,88.38
2023-04-10T03:40:37.956Z,88.48
2023-04-10T03:50:45.402Z,88.58
2023-04-10T04:00:52.466Z,88.78
2023-04-10T04:10:59.565Z,88.84
2023-04-10T04:21:05.452Z,88.74
2023-04-10T04:31:12.623Z,88.80
2023-04-10T04:41:20.621Z,88.74
2023-04-10T04:51:27.331Z,89.02
2023-04-10T05:01:34.796Z,88.96
2023-04-10T05:11:41.152Z,89.11
2023-04-10T05:21:48.251Z,89.26
2023-04-10T05:31:55.499Z,89.66
2023-04-10T05:42:02.061Z,90.12
2023-04-10T05:52:09.061Z,90.09
2023-04-10T06:02:16.745Z,90.39
2023-04-10T06:12:24.172Z,90.42
2023-04-10T06:22:33.047Z,90.54
2023-04-10T06:32:40.649Z,90.91
2023-04-10T06:42:48.183Z,91.06
2023-04-10T06:52:56.623Z,91.57
2023-04-10T07:03:04.179Z,92.31
2023-04-10T07:13:12.106Z,92.41
2023-04-10T07:23:20.201Z,92.66
2023-04-10T07:33:27.868Z,92.66
2023-04-10T07:53:42.181Z,92.71
2023-04-10T08:03:49.702Z,92.88
2023-04-10T08:13:58.941Z,93.11
2023-04-10T08:24:07.734Z,93.27
2023-04-10T08:34:15.170Z,93.39
2023-04-10T08:44:19.954Z,93.20
2023-04-10T08:54:26.157Z,92.65
2023-04-10T09:04:32.476Z,92.30
2023-04-10T09:14:42.205Z,91.82
2023-04-10T09:24:48.698Z,91.52
2023-04-10T09:34:53.706Z,91.36
2023-04-10T09:45:02.044Z,91.26
2023-04-10T09:55:18.379Z,91.19
2023-04-10T10:05:26.124Z,90.83
2023-04-10T10:15:31.407Z,90.28
2023-04-10T10:25:37.913Z,89.64
2023-04-10T10:35:45.658Z,89.35
2023-04-10T10:45:50.895Z,88.84
2023-04-10T10:55:58.032Z,88.24
2023-04-10T11:06:07.161Z,88.25
2023-04-10T11:16:14.531Z,87.64
2023-04-10T11:26:38.535Z,87.18
2023-04-10T11:36:46.794Z,86.60
2023-04-10T11:46:54.558Z,85.60
2023-04-10T11:56:59.835Z,83.65
2023-04-10T12:07:06.510Z,83.21
2023-04-10T12:17:15.012Z,82.37
2023-04-10T12:27:23.772Z,81.18
2023-04-10T12:37:49.162Z,80.21
2023-04-10T12:47:56.588Z,78.65
2023-04-10T12:58:18.309Z,77.82
2023-04-10T13:08:26.331Z,77.42
2023-04-10T13:18:35.636Z,75.42
2023-04-10T13:28:43.797Z,75.13
2023-04-10T13:48:58.085Z,73.61
2023-04-10T13:59:03.821Z,72.76
2023-04-10T14:19:16.731Z,72.88
2023-04-10T14:29:33.084Z,71.98
2023-04-10T14:39:42.772Z,71.63
2023-04-10T14:49:50.024Z,71.14
2023-04-10T14:59:57.052Z,70.64
2023-04-10T15:10:04.544Z,70.42
2023-04-10T15:20:14.210Z,70.38
2023-04-10T15:30:21.344Z,70.08
2023-04-10T15:40:29.481Z,69.39
2023-04-10T15:50:35.403Z,69.55
2023-04-10T16:00:42.534Z,69.47
2023-04-10T16:10:49.701Z,69.34
2023-04-10T16:20:56.811Z,69.20
2023-04-10T16:31:04.959Z,69.52
2023-04-10T16:41:12.717Z,69.46
2023-04-10T16:51:20.861Z,69.34
2023-04-10T17:01:29.344Z,69.62
2023-04-10T17:11:35.484Z,69.98
2023-04-10T17:21:42.524Z,70.56
2023-04-10T17:31:49.683Z,71.12
2023-04-10T17:41:56.391Z,71.54
2023-04-10T17:52:04.238Z,71.99
2023-04-10T18:02:11.446Z,72.29
2023-04-10T18:12:18.650Z,72.85
2023-04-10T18:22:29.409Z,73.26
2023-04-10T18:32:37.116Z,73.71
2023-04-10T18:42:44.352Z,74.12
2023-04-10T18:52:51.468Z,74.28
2023-04-10T19:02:58.782Z,74.33
2023-04-10T19:13:06.383Z,74.74
2023-04-10T19:33:20.265Z,75.49
2023-04-10T19:43:27.455Z,75.66
2023-04-10T19:53:34.781Z,75.79
2023-04-10T20:03:42.496Z,75.78
2023-04-10T20:13:49.809Z,76.24
2023-04-10T20:23:56.343Z,76.57
2023-04-10T20:34:03.412Z,76.90
2023-04-10T20:44:10.453Z,77.11
2023-04-10T20:54:19.174Z,76.99
2023-04-10T21:04:26.447Z,77.21
2023-04-10T21:14:35.997Z,77.70
2023-04-10T21:24:43.127Z,77.90
2023-04-10T21:34:50.394Z,77.79
2023-04-10T21:44:57.347Z,77.89
2023-04-10T21:55:06.186Z,78.02
2023-04-10T22:05:13.699Z,78.34
2023-04-10T22:15:21.489Z,78.88
2023-04-10T22:25:28.712Z,78.88
2023-04-10T22:35:36.116Z,78.65
2023-04-10T22:45:42.654Z,78.98
2023-04-10T22:55:49.864Z,79.11
2023-04-10T23:05:56.864Z,79.58
2023-04-10T23:16:03.907Z,79.89
2023-04-10T23:26:11.645Z,80.43
2023-04-10T23:36:18.663Z,80.42
2023-04-10T23:46:25.905Z,81.06
2023-04-10T23:56:33.231Z,80.65
